sensor_id;sensor_type;location;lat;lon;timestamp;pressure;altitude;pressure_sealevel;temperature;humidity
72685;BME280;61365;52.162;4.500;2023-05-08T00:00:29;102054.97;;;14.77;86.35
72685;BME280;61365;52.162;4.500;2023-05-08T00:02:55;102060.28;;;14.70;86.00
72685;BME280;61365;52.162;4.500;2023-05-08T00:05:21;102055.00;;;14.74;86.07
72685;BME280;61365;52.162;4.500;2023-05-08T00:07:47;102058.50;;;14.69;86.43
72685;BME280;61365;52.162;4.500;2023-05-08T00:10:15;102059.34;;;14.67;86.40
72685;BME280;61365;52.162;4.500;2023-05-08T00:12:41;102057.59;;;14.64;86.76
72685;BME280;61365;52.162;4.500;2023-05-08T00:15:08;102056.69;;;14.64;86.47
72685;BME280;61365;52.162;4.500;2023-05-08T00:17:34;102045.25;;;14.66;86.24
72685;BME280;61365;52.162;4.500;2023-05-08T00:20:00;102046.09;;;14.56;85.96
72685;BME280;61365;52.162;4.500;2023-05-08T00:22:27;102052.28;;;14.50;86.36
72685;BME280;61365;52.162;4.500;2023-05-08T00:24:53;102056.69;;;14.47;87.06
72685;BME280;61365;52.162;4.500;2023-05-08T00:27:19;102051.38;;;14.42;87.38
72685;BME280;61365;52.162;4.500;2023-05-08T00:29:46;102047.00;;;14.56;86.62
72685;BME280;61365;52.162;4.500;2023-05-08T00:32:13;102055.81;;;14.60;86.30
72685;BME280;61365;52.162;4.500;2023-05-08T00:34:39;102049.63;;;14.55;85.98
72685;BME280;61365;52.162;4.500;2023-05-08T00:37:05;102051.38;;;14.45;86.50
72685;BME280;61365;52.162;4.500;2023-05-08T00:39:31;102055.78;;;14.45;86.73
72685;BME280;61365;52.162;4.500;2023-05-08T00:41:58;102062.81;;;14.35;86.53
72685;BME280;61365;52.162;4.500;2023-05-08T00:44:24;102058.34;;;14.17;86.30
72685;BME280;61365;52.162;4.500;2023-05-08T00:46:50;102058.34;;;14.20;86.89
72685;BME280;61365;52.162;4.500;2023-05-08T00:49:16;102056.59;;;14.23;86.87
72685;BME280;61365;52.162;4.500;2023-05-08T00:51:46;102055.69;;;14.18;86.36
72685;BME280;61365;52.162;4.500;2023-05-08T00:54:15;102049.56;;;14.22;86.87
72685;BME280;61365;52.162;4.500;2023-05-08T00:56:41;102054.00;;;14.30;86.66
72685;BME280;61365;52.162;4.500;2023-05-08T00:59:10;102048.63;;;14.09;86.50
72685;BME280;61365;52.162;4.500;2023-05-08T01:01:38;102045.09;;;14.06;86.67
72685;BME280;61365;52.162;4.500;2023-05-08T01:04:05;102050.34;;;14.01;87.06
72685;BME280;61365;52.162;4.500;2023-05-08T01:06:32;102049.53;;;14.16;86.96
72685;BME280;61365;52.162;4.500;2023-05-08T01:09:02;102048.59;;;13.94;86.44
72685;BME280;61365;52.162;4.500;2023-05-08T01:14:20;102043.28;;;13.92;87.12
72685;BME280;61365;52.162;4.500;2023-05-08T01:17:11;102050.28;;;13.87;87.16
72685;BME280;61365;52.162;4.500;2023-05-08T01:30:46;102057.31;;;13.82;87.28
72685;BME280;61365;52.162;4.500;2023-05-08T01:36:16;102055.56;;;13.87;87.07
72685;BME280;61365;52.162;4.500;2023-05-08T01:41:46;102054.66;;;13.74;87.45
72685;BME280;61365;52.162;4.500;2023-05-08T01:44:20;102059.03;;;13.77;87.50
72685;BME280;61365;52.162;4.500;2023-05-08T01:46:53;102063.38;;;13.65;87.26
72685;BME280;61365;52.162;4.500;2023-05-08T01:49:24;102068.66;;;13.69;87.44
72685;BME280;61365;52.162;4.500;2023-05-08T01:51:59;102063.44;;;13.73;87.25
72685;BME280;61365;52.162;4.500;2023-05-08T01:54:31;102061.66;;;13.74;86.95
72685;BME280;61365;52.162;4.500;2023-05-08T01:57:03;102067.78;;;13.65;87.57
72685;BME280;61365;52.162;4.500;2023-05-08T01:59:33;102066.88;;;13.63;87.64
72685;BME280;61365;52.162;4.500;2023-05-08T02:02:01;102072.16;;;13.61;88.24
72685;BME280;61365;52.162;4.500;2023-05-08T02:04:29;102073.91;;;13.64;88.29
72685;BME280;61365;52.162;4.500;2023-05-08T02:06:57;102074.91;;;13.80;87.32
72685;BME280;61365;52.162;4.500;2023-05-08T02:09:25;102074.78;;;13.64;86.81
72685;BME280;61365;52.162;4.500;2023-05-08T02:11:54;102072.03;;;13.46;87.34
72685;BME280;61365;52.162;4.500;2023-05-08T02:14:20;102078.22;;;13.52;88.11
72685;BME280;61365;52.162;4.500;2023-05-08T02:16:48;102080.91;;;13.56;88.16
72685;BME280;61365;52.162;4.500;2023-05-08T02:19:17;102080.03;;;13.55;88.09
72685;BME280;61365;52.162;4.500;2023-05-08T02:21:46;102080.84;;;13.48;88.02
72685;BME280;61365;52.162;4.500;2023-05-08T02:24:15;102077.28;;;13.43;87.89
72685;BME280;61365;52.162;4.500;2023-05-08T02:26:43;102079.94;;;13.41;88.04
72685;BME280;61365;52.162;4.500;2023-05-08T02:29:10;102077.34;;;13.47;88.34
72685;BME280;61365;52.162;4.500;2023-05-08T02:31:38;102080.81;;;13.45;88.58
72685;BME280;61365;52.162;4.500;2023-05-08T02:34:06;102082.50;;;13.38;88.50
72685;BME280;61365;52.162;4.500;2023-05-08T02:36:33;102076.28;;;13.30;88.72
72685;BME280;61365;52.162;4.500;2023-05-08T02:39:02;102077.16;;;13.27;88.93
72685;BME280;61365;52.162;4.500;2023-05-08T02:41:31;102072.97;;;13.51;88.49
72685;BME280;61365;52.162;4.500;2023-05-08T02:43:58;102076.44;;;13.42;88.08
72685;BME280;61365;52.162;4.500;2023-05-08T02:49:07;102077.16;;;13.29;89.22
72685;BME280;61365;52.162;4.500;2023-05-08T02:54:52;102068.41;;;13.33;89.12
72685;BME280;61365;52.162;4.500;2023-05-08T03:00:15;102070.19;;;13.35;88.96
72685;BME280;61365;52.162;4.500;2023-05-08T03:02:43;102063.09;;;13.24;89.09
72685;BME280;61365;52.162;4.500;2023-05-08T03:05:18;102052.53;;;13.25;89.45
72685;BME280;61365;52.162;4.500;2023-05-08T03:07:52;102055.03;;;13.06;88.65
72685;BME280;61365;52.162;4.500;2023-05-08T03:10:24;102058.59;;;13.15;89.10
72685;BME280;61365;52.162;4.500;2023-05-08T03:12:56;102055.97;;;13.15;89.37
72685;BME280;61365;52.162;4.500;2023-05-08T03:15:26;102056.84;;;13.14;89.00
72685;BME280;61365;52.162;4.500;2023-05-08T03:18:01;102057.75;;;13.17;89.34
72685;BME280;61365;52.162;4.500;2023-05-08T03:20:32;102053.38;;;13.19;89.36
72685;BME280;61365;52.162;4.500;2023-05-08T03:23:03;102058.66;;;13.21;89.59
72685;BME280;61365;52.162;4.500;2023-05-08T03:25:32;102069.19;;;13.19;89.64
72685;BME280;61365;52.162;4.500;2023-05-08T03:28:00;102067.44;;;13.18;89.62
72685;BME280;61365;52.162;4.500;2023-05-08T03:30:30;102063.03;;;13.17;89.93
72685;BME280;61365;52.162;4.500;2023-05-08T03:32:57;102063.03;;;13.19;90.10
72685;BME280;61365;52.162;4.500;2023-05-08T03:35:24;102056.03;;;13.21;89.87
72685;BME280;61365;52.162;4.500;2023-05-08T03:37:52;102060.38;;;13.19;90.02
72685;BME280;61365;52.162;4.500;2023-05-08T03:40:18;102058.59;;;13.15;90.06
72685;BME280;61365;52.162;4.500;2023-05-08T03:42:45;102049.84;;;13.17;90.31
72685;BME280;61365;52.162;4.500;2023-05-08T03:45:11;102054.22;;;13.17;90.18
72685;BME280;61365;52.162;4.500;2023-05-08T03:47:40;102048.91;;;13.09;90.09
72685;BME280;61365;52.162;4.500;2023-05-08T03:50:08;102044.53;;;13.10;90.21
72685;BME280;61365;52.162;4.500;2023-05-08T03:52:34;102036.59;;;13.08;90.25
72685;BME280;61365;52.162;4.500;2023-05-08T03:55:00;102038.34;;;13.09;90.16
72685;BME280;61365;52.162;4.500;2023-05-08T03:57:29;102037.53;;;13.13;90.25
72685;BME280;61365;52.162;4.500;2023-05-08T04:00:12;102043.59;;;13.04;89.97
72685;BME280;61365;52.162;4.500;2023-05-08T04:03:09;102044.47;;;13.05;90.15
72685;BME280;61365;52.162;4.500;2023-05-08T04:05:50;102045.41;;;13.10;90.34
72685;BME280;61365;52.162;4.500;2023-05-08T04:08:27;102041.03;;;13.12;90.00
72685;BME280;61365;52.162;4.500;2023-05-08T04:11:08;102043.72;;;13.18;89.73
72685;BME280;61365;52.162;4.500;2023-05-08T04:13:44;102043.72;;;13.23;89.01
72685;BME280;61365;52.162;4.500;2023-05-08T04:16:16;102049.91;;;13.25;89.42
72685;BME280;61365;52.162;4.500;2023-05-08T04:18:46;102064.00;;;13.32;89.73
72685;BME280;61365;52.162;4.500;2023-05-08T04:21:17;102057.88;;;13.36;89.38
72685;BME280;61365;52.162;4.500;2023-05-08T04:23:45;102063.19;;;13.39;89.03
72685;BME280;61365;52.162;4.500;2023-05-08T04:26:15;102072.03;;;13.44;89.01
72685;BME280;61365;52.162;4.500;2023-05-08T04:28:42;102073.81;;;13.47;88.56
72685;BME280;61365;52.162;4.500;2023-05-08T04:31:12;102072.06;;;13.50;88.36
72685;BME280;61365;52.162;4.500;2023-05-08T04:33:41;102078.22;;;13.46;87.94
72685;BME280;61365;52.162;4.500;2023-05-08T04:36:12;102082.44;;;13.27;87.90
72685;BME280;61365;52.162;4.500;2023-05-08T04:38:39;102077.16;;;13.27;88.00
72685;BME280;61365;52.162;4.500;2023-05-08T04:41:06;102070.09;;;13.25;87.89
72685;BME280;61365;52.162;4.500;2023-05-08T04:43:33;102074.59;;;13.38;87.91
72685;BME280;61365;52.162;4.500;2023-05-08T04:46:00;102076.41;;;13.44;87.99
72685;BME280;61365;52.162;4.500;2023-05-08T04:48:29;102070.34;;;13.56;86.62
72685;BME280;61365;52.162;4.500;2023-05-08T04:50:57;102076.50;;;13.53;87.08
72685;BME280;61365;52.162;4.500;2023-05-08T04:53:24;102084.44;;;13.58;87.25
72685;BME280;61365;52.162;4.500;2023-05-08T04:55:51;102078.28;;;13.59;86.62
72685;BME280;61365;52.162;4.500;2023-05-08T04:58:17;102078.38;;;13.71;87.09
72685;BME280;61365;52.162;4.500;2023-05-08T05:00:43;102079.19;;;13.61;86.25
72685;BME280;61365;52.162;4.500;2023-05-08T05:03:09;102082.63;;;13.54;87.42
72685;BME280;61365;52.162;4.500;2023-05-08T05:05:35;102085.28;;;13.52;88.09
72685;BME280;61365;52.162;4.500;2023-05-08T05:08:01;102085.94;;;13.28;87.74
72685;BME280;61365;52.162;4.500;2023-05-08T05:10:28;102088.59;;;13.31;89.79
72685;BME280;61365;52.162;4.500;2023-05-08T05:12:55;102094.03;;;13.48;89.17
72685;BME280;61365;52.162;4.500;2023-05-08T05:15:21;102096.56;;;13.37;89.05
72685;BME280;61365;52.162;4.500;2023-05-08T05:17:47;102098.44;;;13.47;89.78
72685;BME280;61365;52.162;4.500;2023-05-08T05:20:13;102103.69;;;13.44;90.08
72685;BME280;61365;52.162;4.500;2023-05-08T05:22:39;102103.81;;;13.61;90.00
72685;BME280;61365;52.162;4.500;2023-05-08T05:25:05;102097.66;;;13.65;89.23
72685;BME280;61365;52.162;4.500;2023-05-08T05:27:35;102107.34;;;13.70;88.59
72685;BME280;61365;52.162;4.500;2023-05-08T05:30:02;102114.34;;;13.58;88.44
72685;BME280;61365;52.162;4.500;2023-05-08T05:32:28;102113.47;;;13.65;88.63
72685;BME280;61365;52.162;4.500;2023-05-08T05:34:54;102120.53;;;13.65;88.23
72685;BME280;61365;52.162;4.500;2023-05-08T05:37:21;102122.34;;;13.78;85.66
72685;BME280;61365;52.162;4.500;2023-05-08T05:39:47;102121.47;;;13.79;86.79
72685;BME280;61365;52.162;4.500;2023-05-08T05:42:14;102120.72;;;13.98;86.79
72685;BME280;61365;52.162;4.500;2023-05-08T05:44:40;102132.16;;;13.96;86.78
72685;BME280;61365;52.162;4.500;2023-05-08T05:47:06;102131.22;;;13.91;87.29
72685;BME280;61365;52.162;4.500;2023-05-08T05:49:35;102136.50;;;13.85;87.41
72685;BME280;61365;52.162;4.500;2023-05-08T05:52:01;102134.72;;;13.87;87.29
72685;BME280;61365;52.162;4.500;2023-05-08T05:54:27;102137.38;;;13.90;87.93
72685;BME280;61365;52.162;4.500;2023-05-08T05:56:53;102138.34;;;14.06;87.83
72685;BME280;61365;52.162;4.500;2023-05-08T05:59:19;102135.69;;;14.03;87.18
72685;BME280;61365;52.162;4.500;2023-05-08T06:01:45;102138.38;;;14.09;87.30
72685;BME280;61365;52.162;4.500;2023-05-08T06:04:11;102130.53;;;14.28;87.23
72685;BME280;61365;52.162;4.500;2023-05-08T06:06:38;102136.75;;;14.36;86.48
72685;BME280;61365;52.162;4.500;2023-05-08T06:09:04;102135.91;;;14.53;85.12
72685;BME280;61365;52.162;4.500;2023-05-08T06:11:31;102142.97;;;14.55;84.92
72685;BME280;61365;52.162;4.500;2023-05-08T06:13:59;102142.06;;;14.47;85.79
72685;BME280;61365;52.162;4.500;2023-05-08T06:16:25;102130.66;;;14.61;86.01
72685;BME280;61365;52.162;4.500;2023-05-08T06:18:51;102130.78;;;15.18;81.55
72685;BME280;61365;52.162;4.500;2023-05-08T06:21:17;102133.38;;;14.89;81.51
72685;BME280;61365;52.162;4.500;2023-05-08T06:23:43;102135.13;;;14.77;83.32
72685;BME280;61365;52.162;4.500;2023-05-08T06:26:10;102132.44;;;14.66;84.12
72685;BME280;61365;52.162;4.500;2023-05-08T06:28:36;102132.50;;;14.69;85.32
72685;BME280;61365;52.162;4.500;2023-05-08T06:31:02;102133.41;;;14.85;84.36
72685;BME280;61365;52.162;4.500;2023-05-08T06:33:28;102135.16;;;14.99;82.46
72685;BME280;61365;52.162;4.500;2023-05-08T06:35:54;102131.66;;;15.11;81.64
72685;BME280;61365;52.162;4.500;2023-05-08T06:38:20;102126.38;;;15.14;81.88
72685;BME280;61365;52.162;4.500;2023-05-08T06:40:46;102131.63;;;15.01;80.70
72685;BME280;61365;52.162;4.500;2023-05-08T06:43:14;102132.50;;;14.93;82.77
72685;BME280;61365;52.162;4.500;2023-05-08T06:45:42;102130.78;;;14.93;83.30
72685;BME280;61365;52.162;4.500;2023-05-08T06:48:08;102129.00;;;14.95;83.31
72685;BME280;61365;52.162;4.500;2023-05-08T06:50:38;102136.06;;;14.93;83.58
72685;BME280;61365;52.162;4.500;2023-05-08T06:53:05;102132.56;;;15.00;83.48
72685;BME280;61365;52.162;4.500;2023-05-08T06:55:32;102128.16;;;15.07;83.85
72685;BME280;61365;52.162;4.500;2023-05-08T06:57:58;102133.41;;;15.09;84.03
72685;BME280;61365;52.162;4.500;2023-05-08T07:00:24;102129.00;;;15.05;83.69
72685;BME280;61365;52.162;4.500;2023-05-08T07:02:50;102130.78;;;15.30;84.04
72685;BME280;61365;52.162;4.500;2023-05-08T07:05:17;102130.78;;;15.30;82.72
72685;BME280;61365;52.162;4.500;2023-05-08T07:07:44;102132.56;;;15.41;82.10
72685;BME280;61365;52.162;4.500;2023-05-08T07:10:10;102127.28;;;15.22;81.70
72685;BME280;61365;52.162;4.500;2023-05-08T07:12:37;102127.22;;;14.96;84.02
72685;BME280;61365;52.162;4.500;2023-05-08T07:15:03;102119.34;;;15.25;83.59
72685;BME280;61365;52.162;4.500;2023-05-08T07:17:29;102123.75;;;15.37;82.32
72685;BME280;61365;52.162;4.500;2023-05-08T07:19:57;102117.59;;;15.24;81.49
72685;BME280;61365;52.162;4.500;2023-05-08T07:22:23;102115.59;;;14.38;85.29
72685;BME280;61365;52.162;4.500;2023-05-08T07:24:49;102109.59;;;14.68;85.56
72685;BME280;61365;52.162;4.500;2023-05-08T07:27:15;102111.38;;;14.80;84.69
72685;BME280;61365;52.162;4.500;2023-05-08T07:29:41;102124.63;;;15.30;83.57
72685;BME280;61365;52.162;4.500;2023-05-08T07:32:08;102115.78;;;15.36;82.71
72685;BME280;61365;52.162;4.500;2023-05-08T07:34:34;102121.09;;;15.37;81.40
72685;BME280;61365;52.162;4.500;2023-05-08T07:37:00;102121.09;;;15.39;81.30
72685;BME280;61365;52.162;4.500;2023-05-08T07:39:27;102122.84;;;15.49;82.26
72685;BME280;61365;52.162;4.500;2023-05-08T07:41:53;102113.88;;;16.17;77.90
72685;BME280;61365;52.162;4.500;2023-05-08T07:44:19;102118.38;;;15.82;79.59
72685;BME280;61365;52.162;4.500;2023-05-08T07:46:45;102120.19;;;15.88;79.58
72685;BME280;61365;52.162;4.500;2023-05-08T07:49:11;102120.13;;;15.83;80.62
72685;BME280;61365;52.162;4.500;2023-05-08T07:51:37;102111.22;;;16.23;79.86
72685;BME280;61365;52.162;4.500;2023-05-08T07:54:04;102116.34;;;16.56;78.15
72685;BME280;61365;52.162;4.500;2023-05-08T07:56:31;102122.50;;;16.62;77.85
72685;BME280;61365;52.162;4.500;2023-05-08T07:58:57;102121.59;;;16.68;76.56
72685;BME280;61365;52.162;4.500;2023-05-08T08:01:23;102118.09;;;16.61;77.70
72685;BME280;61365;52.162;4.500;2023-05-08T08:03:49;102124.25;;;16.65;76.70
72685;BME280;61365;52.162;4.500;2023-05-08T08:06:15;102120.94;;;16.18;78.23
72685;BME280;61365;52.162;4.500;2023-05-08T08:08:43;102124.50;;;16.09;80.09
72685;BME280;61365;52.162;4.500;2023-05-08T08:11:09;102120.75;;;16.57;78.99
72685;BME280;61365;52.162;4.500;2023-05-08T08:13:35;102131.25;;;16.77;78.23
72685;BME280;61365;52.162;4.500;2023-05-08T08:16:01;102124.91;;;17.03;77.10
72685;BME280;61365;52.162;4.500;2023-05-08T08:18:29;102127.59;;;17.00;75.91
72685;BME280;61365;52.162;4.500;2023-05-08T08:20:55;102122.34;;;16.87;77.34
72685;BME280;61365;52.162;4.500;2023-05-08T08:23:21;102117.84;;;17.05;76.99
72685;BME280;61365;52.162;4.500;2023-05-08T08:25:48;102115.09;;;17.16;76.05
72685;BME280;61365;52.162;4.500;2023-05-08T08:28:14;102116.81;;;17.18;77.02
72685;BME280;61365;52.162;4.500;2023-05-08T08:30:40;102123.78;;;17.33;75.25
72685;BME280;61365;52.162;4.500;2023-05-08T08:33:06;102117.50;;;17.42;75.77
72685;BME280;61365;52.162;4.500;2023-05-08T08:35:32;102115.03;;;17.20;76.45
72685;BME280;61365;52.162;4.500;2023-05-08T08:37:58;102120.13;;;17.47;75.04
72685;BME280;61365;52.162;4.500;2023-05-08T08:40:24;102116.06;;;17.96;73.46
72685;BME280;61365;52.162;4.500;2023-05-08T08:42:51;102118.63;;;18.07;73.30
72685;BME280;61365;52.162;4.500;2023-05-08T08:45:17;102115.44;;;18.50;72.03
72685;BME280;61365;52.162;4.500;2023-05-08T08:47:43;102111.19;;;19.01;70.64
72685;BME280;61365;52.162;4.500;2023-05-08T08:50:12;102113.53;;;19.18;69.56
72685;BME280;61365;52.162;4.500;2023-05-08T08:53:04;102108.94;;;19.29;68.80
72685;BME280;61365;52.162;4.500;2023-05-08T08:55:39;102112.38;;;19.34;68.91
72685;BME280;61365;52.162;4.500;2023-05-08T08:58:19;102110.19;;;19.58;67.78
72685;BME280;61365;52.162;4.500;2023-05-08T09:00:49;102104.88;;;19.05;69.08
72685;BME280;61365;52.162;4.500;2023-05-08T09:03:15;102108.63;;;18.91;69.33
72685;BME280;61365;52.162;4.500;2023-05-08T09:05:42;102112.22;;;18.87;70.90
72685;BME280;61365;52.162;4.500;2023-05-08T09:08:09;102110.97;;;19.13;69.81
72685;BME280;61365;52.162;4.500;2023-05-08T09:10:37;102100.78;;;19.86;67.47
72685;BME280;61365;52.162;4.500;2023-05-08T09:13:03;102097.97;;;19.95;66.62
72685;BME280;61365;52.162;4.500;2023-05-08T09:15:30;102099.84;;;19.90;67.01
72685;BME280;61365;52.162;4.500;2023-05-08T09:17:57;102105.59;;;19.67;67.85
72685;BME280;61365;52.162;4.500;2023-05-08T09:20:25;102098.44;;;19.70;67.83
72685;BME280;61365;52.162;4.500;2023-05-08T09:22:53;102099.31;;;20.16;66.25
72685;BME280;61365;52.162;4.500;2023-05-08T09:25:19;102111.88;;;20.11;65.08
72685;BME280;61365;52.162;4.500;2023-05-08T09:27:45;102099.28;;;20.18;65.16
72685;BME280;61365;52.162;4.500;2023-05-08T09:30:11;102097.94;;;19.97;66.58
72685;BME280;61365;52.162;4.500;2023-05-08T09:32:39;102094.19;;;20.87;64.01
72685;BME280;61365;52.162;4.500;2023-05-08T09:35:07;102094.66;;;20.67;64.10
72685;BME280;61365;52.162;4.500;2023-05-08T09:37:38;102103.03;;;21.25;62.03
72685;BME280;61365;52.162;4.500;2023-05-08T09:40:17;102101.63;;;20.73;64.23
72685;BME280;61365;52.162;4.500;2023-05-08T09:42:47;102106.53;;;20.93;63.09
72685;BME280;61365;52.162;4.500;2023-05-08T09:45:27;102109.88;;;20.19;65.33
72685;BME280;61365;52.162;4.500;2023-05-08T09:47:55;102103.59;;;20.23;65.08
72685;BME280;61365;52.162;4.500;2023-05-08T09:50:22;102112.03;;;20.02;66.44
72685;BME280;61365;52.162;4.500;2023-05-08T09:52:49;102109.41;;;20.00;65.62
72685;BME280;61365;52.162;4.500;2023-05-08T09:55:15;102115.78;;;19.43;67.71
72685;BME280;61365;52.162;4.500;2023-05-08T09:57:51;102106.75;;;20.00;65.77
72685;BME280;61365;52.162;4.500;2023-05-08T10:00:19;102108.13;;;20.18;64.80
72685;BME280;61365;52.162;4.500;2023-05-08T10:02:55;102110.25;;;19.55;66.70
72685;BME280;61365;52.162;4.500;2023-05-08T10:05:28;102099.22;;;20.19;65.28
72685;BME280;61365;52.162;4.500;2023-05-08T10:08:19;102108.06;;;20.23;65.74
72685;BME280;61365;52.162;4.500;2023-05-08T10:10:51;102107.16;;;20.65;64.31
72685;BME280;61365;52.162;4.500;2023-05-08T10:13:17;102100.09;;;21.00;64.24
72685;BME280;61365;52.162;4.500;2023-05-08T10:15:43;102107.38;;;21.29;62.85
72685;BME280;61365;52.162;4.500;2023-05-08T10:18:10;102102.78;;;21.69;61.29
72685;BME280;61365;52.162;4.500;2023-05-08T10:20:38;102097.88;;;21.52;61.34
72685;BME280;61365;52.162;4.500;2023-05-08T10:23:09;102105.88;;;21.87;60.21
72685;BME280;61365;52.162;4.500;2023-05-08T10:25:51;102094.06;;;22.24;58.65
72685;BME280;61365;52.162;4.500;2023-05-08T10:28:41;102105.34;;;21.74;60.35
72685;BME280;61365;52.162;4.500;2023-05-08T10:31:16;102108.09;;;21.36;60.23
72685;BME280;61365;52.162;4.500;2023-05-08T10:33:43;102106.13;;;21.08;62.07
72685;BME280;61365;52.162;4.500;2023-05-08T10:36:11;102104.75;;;21.28;61.39
72685;BME280;61365;52.162;4.500;2023-05-08T10:38:38;102102.47;;;21.12;61.44
72685;BME280;61365;52.162;4.500;2023-05-08T10:41:06;102091.91;;;21.42;60.81
72685;BME280;61365;52.162;4.500;2023-05-08T10:43:33;102086.22;;;21.55;60.87
72685;BME280;61365;52.162;4.500;2023-05-08T10:46:03;102092.09;;;21.35;62.09
72685;BME280;61365;52.162;4.500;2023-05-08T10:48:38;102091.38;;;21.28;62.75
72685;BME280;61365;52.162;4.500;2023-05-08T10:51:37;102094.06;;;21.28;62.67
72685;BME280;61365;52.162;4.500;2023-05-08T10:54:12;102088.28;;;21.45;61.93
72685;BME280;61365;52.162;4.500;2023-05-08T10:56:44;102088.03;;;21.20;62.96
72685;BME280;61365;52.162;4.500;2023-05-08T10:59:16;102084.56;;;21.18;63.08
72685;BME280;61365;52.162;4.500;2023-05-08T11:01:47;102079.75;;;21.65;60.50
72685;BME280;61365;52.162;4.500;2023-05-08T11:04:20;102084.44;;;21.21;62.43
72685;BME280;61365;52.162;4.500;2023-05-08T11:06:48;102083.44;;;20.92;63.14
72685;BME280;61365;52.162;4.500;2023-05-08T11:09:21;102080.06;;;20.82;64.15
72685;BME280;61365;52.162;4.500;2023-05-08T11:11:55;102078.47;;;20.75;64.20
72685;BME280;61365;52.162;4.500;2023-05-08T11:14:28;102074.31;;;21.34;62.15
72685;BME280;61365;52.162;4.500;2023-05-08T11:19:24;102076.66;;;21.13;63.22
72685;BME280;61365;52.162;4.500;2023-05-08T11:24:36;102062.75;;;21.00;63.41
72685;BME280;61365;52.162;4.500;2023-05-08T11:27:03;102068.72;;;21.10;63.53
72685;BME280;61365;52.162;4.500;2023-05-08T11:29:30;102057.94;;;21.14;61.87
72685;BME280;61365;52.162;4.500;2023-05-08T11:31:56;102058.16;;;21.40;61.81
72685;BME280;61365;52.162;4.500;2023-05-08T11:39:36;102059.28;;;20.96;63.36
72685;BME280;61365;52.162;4.500;2023-05-08T11:47:48;102054.78;;;20.98;61.78
72685;BME280;61365;52.162;4.500;2023-05-08T11:50:15;102054.94;;;20.92;62.31
72685;BME280;61365;52.162;4.500;2023-05-08T11:52:41;102054.22;;;20.85;62.83
72685;BME280;61365;52.162;4.500;2023-05-08T11:55:08;102052.63;;;21.13;62.60
72685;BME280;61365;52.162;4.500;2023-05-08T11:57:36;102051.34;;;21.94;60.84
72685;BME280;61365;52.162;4.500;2023-05-08T12:00:09;102048.53;;;21.97;60.70
72685;BME280;61365;52.162;4.500;2023-05-08T12:02:37;102050.66;;;22.46;60.02
72685;BME280;61365;52.162;4.500;2023-05-08T12:05:04;102049.19;;;22.35;58.36
72685;BME280;61365;52.162;4.500;2023-05-08T12:07:31;102040.53;;;21.33;61.27
72685;BME280;61365;52.162;4.500;2023-05-08T12:10:01;102042.44;;;21.62;62.15
72685;BME280;61365;52.162;4.500;2023-05-08T12:12:40;102046.00;;;21.94;60.17
72685;BME280;61365;52.162;4.500;2023-05-08T12:17:36;102039.66;;;21.97;60.03
72685;BME280;61365;52.162;4.500;2023-05-08T12:22:35;102036.34;;;22.18;59.88
72685;BME280;61365;52.162;4.500;2023-05-08T12:25:04;102032.91;;;22.13;60.86
72685;BME280;61365;52.162;4.500;2023-05-08T12:27:31;102030.38;;;21.80;59.00
72685;BME280;61365;52.162;4.500;2023-05-08T12:29:57;102035.72;;;21.80;59.08
72685;BME280;61365;52.162;4.500;2023-05-08T12:32:23;102035.41;;;22.19;58.78
72685;BME280;61365;52.162;4.500;2023-05-08T12:34:50;102030.97;;;21.90;58.17
72685;BME280;61365;52.162;4.500;2023-05-08T12:37:25;102033.38;;;21.68;60.15
72685;BME280;61365;52.162;4.500;2023-05-08T12:39:52;102031.72;;;21.94;58.99
72685;BME280;61365;52.162;4.500;2023-05-08T12:42:18;102035.34;;;22.51;57.86
72685;BME280;61365;52.162;4.500;2023-05-08T12:44:50;102033.94;;;22.09;58.67
72685;BME280;61365;52.162;4.500;2023-05-08T12:47:18;102037.75;;;22.59;57.40
72685;BME280;61365;52.162;4.500;2023-05-08T12:49:46;102029.97;;;21.93;58.21
72685;BME280;61365;52.162;4.500;2023-05-08T12:52:14;102032.78;;;21.56;60.74
72685;BME280;61365;52.162;4.500;2023-05-08T12:54:46;102032.88;;;21.20;61.31
72685;BME280;61365;52.162;4.500;2023-05-08T12:57:17;102027.25;;;21.31;60.59
72685;BME280;61365;52.162;4.500;2023-05-08T12:59:45;102027.97;;;21.69;59.89
72685;BME280;61365;52.162;4.500;2023-05-08T13:04:39;102030.34;;;21.15;61.63
72685;BME280;61365;52.162;4.500;2023-05-08T13:07:05;102029.31;;;20.85;62.15
72685;BME280;61365;52.162;4.500;2023-05-08T13:09:31;102028.59;;;20.80;62.42
72685;BME280;61365;52.162;4.500;2023-05-08T13:11:58;102019.25;;;20.96;62.15
72685;BME280;61365;52.162;4.500;2023-05-08T13:14:24;102025.03;;;21.14;63.55
72685;BME280;61365;52.162;4.500;2023-05-08T13:16:50;102023.59;;;21.00;62.18
72685;BME280;61365;52.162;4.500;2023-05-08T13:19:16;102020.09;;;20.98;61.76
72685;BME280;61365;52.162;4.500;2023-05-08T13:21:43;102015.88;;;20.90;62.91
72685;BME280;61365;52.162;4.500;2023-05-08T13:24:12;102016.91;;;21.19;61.00
72685;BME280;61365;52.162;4.500;2023-05-08T13:26:39;102022.63;;;21.05;61.29
72685;BME280;61365;52.162;4.500;2023-05-08T13:29:05;102023.59;;;21.00;61.65
72685;BME280;61365;52.162;4.500;2023-05-08T13:31:31;102021.28;;;20.87;62.75
72685;BME280;61365;52.162;4.500;2023-05-08T13:33:57;102019.19;;;21.33;61.02
72685;BME280;61365;52.162;4.500;2023-05-08T13:36:24;102019.03;;;21.70;60.73
72685;BME280;61365;52.162;4.500;2023-05-08T13:38:51;102016.38;;;21.70;59.00
72685;BME280;61365;52.162;4.500;2023-05-08T13:41:19;102016.59;;;21.94;58.70
72685;BME280;61365;52.162;4.500;2023-05-08T13:43:45;102028.56;;;21.48;59.87
72685;BME280;61365;52.162;4.500;2023-05-08T13:46:12;102023.41;;;21.08;60.58
72685;BME280;61365;52.162;4.500;2023-05-08T13:48:38;102025.94;;;21.13;60.86